Time;durP1;ratioP1;P1;durP2;ratioP2;P2;SDS_P1;SDS_P2;PMS_P1;PMS_P2;Temp;Humidity;BMP_temperature;BMP_pressure;BME280_temperature;BME280_humidity;BME280_pressure;Samples;Min_cycle;Max_cycle;Signal;HPM_P1;HPM_P2
2022/05/27 00:01:29;;;;;;;3.57;1.87;;;;;;;;;;5055790;28;20183;-66
2022/05/27 00:03:55;;;;;;;4.17;1.40;;;;;;;;;;5037856;28;20700;-65
2022/05/27 00:06:21;;;;;;;2.10;1.60;;;;;;;;;;5037811;28;20267;-65
2022/05/27 00:08:48;;;;;;;1.80;1.63;;;;;;;;;;5055877;28;20289;-65
2022/05/27 00:11:14;;;;;;;1.93;1.70;;;;;;;;;;5056079;28;20552;-66
2022/05/27 00:13:41;;;;;;;3.90;1.77;;;;;;;;;;5037711;28;20706;-65
2022/05/27 00:16:07;;;;;;;2.07;1.50;;;;;;;;;;5037655;28;20174;-65
2022/05/27 00:18:33;;;;;;;2.70;1.70;;;;;;;;;;5055699;28;20186;-65
2022/05/27 00:20:59;;;;;;;1.90;1.63;;;;;;;;;;5055448;28;20178;-65
2022/05/27 00:23:26;;;;;;;2.30;1.80;;;;;;;;;;5055366;28;20261;-65
2022/05/27 00:25:52;;;;;;;1.73;1.60;;;;;;;;;;5037469;28;20564;-65
2022/05/27 00:28:18;;;;;;;3.13;1.73;;;;;;;;;;5055290;28;20650;-65
2022/05/27 00:30:44;;;;;;;2.73;1.93;;;;;;;;;;5055392;28;20171;-65
2022/05/27 00:33:10;;;;;;;2.90;1.80;;;;;;;;;;5054048;28;20257;-65
2022/05/27 00:35:36;;;;;;;3.23;1.73;;;;;;;;;;5055390;28;20278;-65
2022/05/27 00:38:02;;;;;;;1.90;1.70;;;;;;;;;;5055443;28;20615;-65
2022/05/27 00:40:34;;;;;;;2.10;1.90;;;;;;;;;;5054987;28;20662;-65
2022/05/27 00:43:00;;;;;;;2.43;1.70;;;;;;;;;;5037111;28;20177;-65
2022/05/27 00:45:26;;;;;;;1.60;1.50;;;;;;;;;;5055259;28;20545;-65
2022/05/27 00:47:57;;;;;;;2.47;1.73;;;;;;;;;;5055029;28;20663;-65
2022/05/27 00:50:25;;;;;;;2.00;1.90;;;;;;;;;;5055094;28;20198;-65
2022/05/27 00:52:51;;;;;;;1.70;1.60;;;;;;;;;;5054958;28;20257;-65
2022/05/27 00:55:19;;;;;;;1.73;1.63;;;;;;;;;;5055263;28;20685;-65
2022/05/27 00:57:47;;;;;;;1.83;1.60;;;;;;;;;;5054828;28;20190;-65
2022/05/27 01:00:16;;;;;;;4.23;1.80;;;;;;;;;;5054706;28;20256;-66
2022/05/27 01:02:42;;;;;;;4.07;2.00;;;;;;;;;;5054775;28;20631;-66
2022/05/27 01:05:09;;;;;;;2.07;1.87;;;;;;;;;;5054671;28;20265;-65
2022/05/27 01:07:36;;;;;;;2.63;1.90;;;;;;;;;;5054774;28;20202;-65
2022/05/27 01:10:04;;;;;;;1.93;1.80;;;;;;;;;;5054526;28;20297;-67
2022/05/27 01:12:42;;;;;;;1.83;1.73;;;;;;;;;;5054578;28;20186;-66
2022/05/27 01:15:11;;;;;;;1.77;1.67;;;;;;;;;;5054752;28;20189;-65
2022/05/27 01:17:47;;;;;;;2.47;1.70;;;;;;;;;;5054633;28;20662;-65
2022/05/27 01:20:20;;;;;;;2.60;1.70;;;;;;;;;;5054436;28;20201;-65
2022/05/27 01:22:55;;;;;;;4.23;1.83;;;;;;;;;;5054798;28;20195;-65
2022/05/27 01:25:39;;;;;;;1.83;1.73;;;;;;;;;;5054228;28;20178;-65
2022/05/27 01:28:22;;;;;;;3.00;1.80;;;;;;;;;;5036203;28;20234;-67
2022/05/27 01:31:12;;;;;;;2.30;2.00;;;;;;;;;;5054388;28;20607;-63
2022/05/27 01:33:44;;;;;;;5.87;1.93;;;;;;;;;;5023551;28;20220;-65
2022/05/27 01:36:17;;;;;;;1.80;1.70;;;;;;;;;;5053928;28;20170;-65
2022/05/27 01:38:49;;;;;;;3.67;2.30;;;;;;;;;;5054021;28;20210;-65
2022/05/27 01:41:40;;;;;;;2.13;1.60;;;;;;;;;;5036077;28;20630;-66
2022/05/27 01:44:26;;;;;;;2.87;1.80;;;;;;;;;;5054166;28;20627;-65
2022/05/27 01:46:52;;;;;;;2.30;2.10;;;;;;;;;;5053606;28;20182;-65
2022/05/27 01:49:36;;;;;;;2.17;1.97;;;;;;;;;;5053650;28;20202;-65
2022/05/27 01:52:11;;;;;;;2.17;1.70;;;;;;;;;;5035885;28;20163;-65
2022/05/27 01:54:51;;;;;;;2.53;2.10;;;;;;;;;;5053651;28;20166;-65
2022/05/27 01:57:35;;;;;;;2.97;2.00;;;;;;;;;;5053893;28;20626;-66
2022/05/27 02:00:04;;;;;;;1.93;1.83;;;;;;;;;;5053686;28;20239;-66
2022/05/27 02:02:31;;;;;;;2.27;2.07;;;;;;;;;;5053635;28;20666;-65
2022/05/27 02:05:09;;;;;;;3.27;1.97;;;;;;;;;;5089159;22;20233;-66
2022/05/27 02:07:42;;;;;;;2.97;1.90;;;;;;;;;;5073558;28;20253;-67
2022/05/27 02:10:11;;;;;;;2.87;2.17;;;;;;;;;;5074089;28;20550;-66
2022/05/27 02:12:41;;;;;;;3.03;2.40;;;;;;;;;;5073819;28;20181;-66
2022/05/27 02:15:09;;;;;;;4.63;2.20;;;;;;;;;;5074102;28;20205;-66
2022/05/27 02:17:41;;;;;;;2.90;2.17;;;;;;;;;;5074038;28;20239;-66
2022/05/27 02:20:15;;;;;;;3.03;2.73;;;;;;;;;;5074575;28;20186;-66
2022/05/27 02:22:44;;;;;;;2.60;2.40;;;;;;;;;;5073783;28;20626;-66
2022/05/27 02:25:16;;;;;;;3.37;2.20;;;;;;;;;;5074044;28;20367;-66
2022/05/27 02:27:42;;;;;;;2.30;2.10;;;;;;;;;;5073217;28;20201;-66
2022/05/27 02:30:12;;;;;;;4.27;2.70;;;;;;;;;;5073660;28;20177;-66
2022/05/27 02:32:39;;;;;;;4.03;2.60;;;;;;;;;;5074201;28;20260;-66
2022/05/27 02:35:24;;;;;;;3.97;2.60;;;;;;;;;;5055618;28;20247;-66
2022/05/27 02:37:51;;;;;;;4.23;3.10;;;;;;;;;;5073224;28;20213;-66
2022/05/27 02:40:20;;;;;;;5.73;2.97;;;;;;;;;;5055286;28;20186;-66
2022/05/27 02:42:55;;;;;;;3.50;2.60;;;;;;;;;;5055314;28;20645;-65
2022/05/27 02:45:40;;;;;;;3.73;3.07;;;;;;;;;;5055725;28;20556;-67
2022/05/27 02:48:12;;;;;;;3.90;3.60;;;;;;;;;;5073680;28;20208;-65
2022/05/27 02:50:41;;;;;;;4.47;3.00;;;;;;;;;;5055273;28;20184;-68
2022/05/27 02:53:25;;;;;;;5.67;3.13;;;;;;;;;;5073242;28;20180;-66
2022/05/27 02:56:01;;;;;;;5.40;3.67;;;;;;;;;;5056271;28;20198;-66
2022/05/27 02:58:28;;;;;;;5.27;3.50;;;;;;;;;;5077939;28;20166;-67
2022/05/27 03:00:54;;;;;;;6.27;4.00;;;;;;;;;;5077734;28;20595;-66
2022/05/27 03:03:20;;;;;;;3.90;3.50;;;;;;;;;;5077418;28;20235;-64
2022/05/27 03:06:01;;;;;;;6.40;3.93;;;;;;;;;;5077239;28;20632;-63
2022/05/27 03:08:27;;;;;;;4.30;3.90;;;;;;;;;;5077508;28;20254;-65
2022/05/27 03:10:53;;;;;;;4.80;3.97;;;;;;;;;;5058996;28;20181;-65
2022/05/27 03:13:27;;;;;;;6.70;3.90;;;;;;;;;;5076869;28;20638;-65
2022/05/27 03:16:12;;;;;;;3.90;3.50;;;;;;;;;;5077150;28;20624;-64
2022/05/27 03:18:52;;;;;;;4.43;3.60;;;;;;;;;;5077193;28;20178;-64
2022/05/27 03:21:22;;;;;;;4.30;3.90;;;;;;;;;;5077393;28;20166;-66
2022/05/27 03:23:57;;;;;;;4.37;3.97;;;;;;;;;;5076517;28;20187;-67
2022/05/27 03:26:26;;;;;;;4.67;3.57;;;;;;;;;;5058678;28;20645;-66
2022/05/27 03:29:01;;;;;;;3.43;2.90;;;;;;;;;;5058612;28;20669;-66
2022/05/27 03:31:31;;;;;;;3.23;2.90;;;;;;;;;;5076611;28;20253;-64
2022/05/27 03:34:20;;;;;;;3.17;2.77;;;;;;;;;;5076506;28;20182;-67
2022/05/27 03:36:51;;;;;;;2.70;2.50;;;;;;;;;;5063389;28;20667;-66
2022/05/27 03:39:19;;;;;;;3.20;2.73;;;;;;;;;;5058306;28;20216;-66
2022/05/27 03:41:48;;;;;;;3.80;2.93;;;;;;;;;;5058281;28;20242;-67
2022/05/27 03:44:19;;;;;;;3.03;2.80;;;;;;;;;;5058100;28;20259;-67
2022/05/27 03:46:48;;;;;;;3.57;2.60;;;;;;;;;;5076247;28;20171;-66
2022/05/27 03:49:14;;;;;;;3.47;3.17;;;;;;;;;;5058242;28;20174;-66
2022/05/27 03:51:49;;;;;;;3.73;3.30;;;;;;;;;;5076333;28;20231;-66
2022/05/27 03:54:15;;;;;;;3.17;2.97;;;;;;;;;;5076035;28;20208;-67
2022/05/27 03:56:42;;;;;;;2.97;2.67;;;;;;;;;;5076208;28;20182;-67
2022/05/27 03:59:09;;;;;;;5.70;3.30;;;;;;;;;;5076240;28;20208;-67
2022/05/27 04:01:36;;;;;;;5.63;3.50;;;;;;;;;;5058078;28;20189;-67
2022/05/27 04:04:04;;;;;;;5.10;3.60;;;;;;;;;;5075876;28;20217;-67
2022/05/27 04:06:30;;;;;;;3.50;3.20;;;;;;;;;;5076303;28;20556;-66
2022/05/27 04:08:57;;;;;;;4.47;3.97;;;;;;;;;;5075719;28;20289;-67
2022/05/27 04:11:23;;;;;;;5.50;3.80;;;;;;;;;;5075725;28;20208;-67
2022/05/27 04:13:49;;;;;;;4.10;3.70;;;;;;;;;;5057742;28;20269;-66
2022/05/27 04:16:15;;;;;;;5.53;3.77;;;;;;;;;;5057615;28;20185;-66
2022/05/27 04:18:41;;;;;;;5.40;4.03;;;;;;;;;;5075744;28;20231;-66
2022/05/27 04:21:07;;;;;;;4.27;3.87;;;;;;;;;;5058561;28;20186;-67
2022/05/27 04:23:34;;;;;;;4.63;3.70;;;;;;;;;;5057776;28;20182;-66
2022/05/27 04:26:00;;;;;;;4.97;4.40;;;;;;;;;;5058030;28;20611;-67
2022/05/27 04:28:26;;;;;;;4.63;3.93;;;;;;;;;;5058044;28;20258;-66
2022/05/27 04:30:51;;;;;;;3.83;3.50;;;;;;;;;;5075979;28;20631;-68
2022/05/27 04:33:17;;;;;;;3.60;3.30;;;;;;;;;;5075858;28;20177;-66
2022/05/27 04:35:44;;;;;;;5.47;3.87;;;;;;;;;;5057657;28;20570;-66
2022/05/27 04:38:10;;;;;;;5.30;3.87;;;;;;;;;;5057481;28;20185;-67
2022/05/27 04:40:36;;;;;;;3.80;2.80;;;;;;;;;;5075354;28;20264;-65
2022/05/27 04:43:02;;;;;;;5.80;3.47;;;;;;;;;;5075015;28;20209;-67
2022/05/27 04:45:28;;;;;;;3.50;3.20;;;;;;;;;;5057222;28;20640;-67
2022/05/27 04:47:54;;;;;;;4.90;3.40;;;;;;;;;;5075631;28;20208;-66
2022/05/27 04:50:21;;;;;;;4.00;3.60;;;;;;;;;;5076142;28;20256;-67
2022/05/27 04:52:47;;;;;;;3.93;3.40;;;;;;;;;;5058616;28;20269;-67
2022/05/27 04:55:14;;;;;;;4.43;3.50;;;;;;;;;;5058440;28;20230;-67
2022/05/27 04:57:42;;;;;;;4.50;3.63;;;;;;;;;;5075096;28;20211;-67
2022/05/27 05:00:10;;;;;;;6.43;3.47;;;;;;;;;;5074831;28;20193;-66
2022/05/27 05:02:36;;;;;;;4.37;3.33;;;;;;;;;;5075207;28;20199;-66
2022/05/27 05:05:02;;;;;;;3.50;3.20;;;;;;;;;;5056785;28;20221;-66
2022/05/27 05:07:28;;;;;;;4.43;3.03;;;;;;;;;;5057088;28;20208;-66
2022/05/27 05:09:54;;;;;;;5.07;3.27;;;;;;;;;;5057260;28;20173;-67
2022/05/27 05:12:22;;;;;;;6.77;3.20;;;;;;;;;;5075338;28;20526;-66
2022/05/27 05:14:49;;;;;;;4.13;3.67;;;;;;;;;;5074573;28;20194;-67
2022/05/27 05:17:15;;;;;;;5.53;3.53;;;;;;;;;;5057081;28;20660;-68
2022/05/27 05:19:41;;;;;;;3.70;3.37;;;;;;;;;;5074892;28;20185;-68
2022/05/27 05:22:07;;;;;;;3.47;3.17;;;;;;;;;;5056510;28;20185;-67
2022/05/27 05:24:33;;;;;;;4.80;3.33;;;;;;;;;;5056277;28;20198;-66
2022/05/27 05:26:59;;;;;;;7.10;3.77;;;;;;;;;;5074342;28;20592;-66
2022/05/27 05:29:25;;;;;;;4.37;3.20;;;;;;;;;;5056324;28;20242;-67
2022/05/27 05:31:51;;;;;;;5.00;3.53;;;;;;;;;;5074421;28;20182;-67
2022/05/27 05:34:18;;;;;;;3.37;3.07;;;;;;;;;;5074122;28;20273;-67
2022/05/27 05:36:44;;;;;;;3.70;3.27;;;;;;;;;;5074373;28;20174;-66
2022/05/27 05:39:10;;;;;;;3.63;3.30;;;;;;;;;;5074047;28;20174;-66
2022/05/27 05:41:37;;;;;;;4.40;3.07;;;;;;;;;;5056275;28;20612;-66
2022/05/27 05:44:05;;;;;;;3.77;3.40;;;;;;;;;;5074034;28;20570;-66
2022/05/27 05:46:32;;;;;;;3.20;3.00;;;;;;;;;;5073852;28;20186;-66
2022/05/27 05:48:58;;;;;;;3.97;3.10;;;;;;;;;;5073648;28;20220;-66
2022/05/27 05:51:24;;;;;;;4.63;3.40;;;;;;;;;;5055908;28;20174;-66
2022/05/27 05:53:50;;;;;;;5.27;3.07;;;;;;;;;;5073665;28;20178;-65
2022/05/27 05:56:16;;;;;;;5.90;2.90;;;;;;;;;;5074076;28;20257;-66
2022/05/27 05:58:43;;;;;;;3.40;3.10;;;;;;;;;;5074225;28;20213;-66
2022/05/27 06:01:09;;;;;;;4.30;3.23;;;;;;;;;;5055645;28;20185;-66
2022/05/27 06:03:35;;;;;;;3.30;3.00;;;;;;;;;;5073455;28;20178;-68
2022/05/27 06:06:01;;;;;;;4.10;3.07;;;;;;;;;;5055582;28;20259;-66
2022/05/27 06:08:27;;;;;;;3.40;3.10;;;;;;;;;;5055916;28;20205;-66
2022/05/27 06:10:53;;;;;;;5.27;3.43;;;;;;;;;;5056655;28;20223;-66
2022/05/27 06:13:19;;;;;;;3.20;2.90;;;;;;;;;;5073802;28;20189;-66
2022/05/27 06:15:46;;;;;;;3.40;3.10;;;;;;;;;;5055847;28;20674;-66
2022/05/27 06:18:15;;;;;;;5.03;3.27;;;;;;;;;;5056168;28;20273;-65
2022/05/27 06:20:41;;;;;;;3.60;3.23;;;;;;;;;;5074331;28;20182;-66
2022/05/27 06:23:07;;;;;;;2.97;2.67;;;;;;;;;;5073539;28;20272;-66
2022/05/27 06:25:33;;;;;;;3.63;2.97;;;;;;;;;;5055744;28;20551;-66
2022/05/27 06:36:15;;;;;;;6.67;3.33;;;;;;;;;;5073606;28;20169;-66
2022/05/27 06:38:41;;;;;;;4.67;3.53;;;;;;;;;;5055631;28;20186;-66
2022/05/27 06:41:07;;;;;;;10.87;3.43;;;;;;;;;;5073770;28;20242;-66
2022/05/27 06:43:33;;;;;;;4.60;3.37;;;;;;;;;;5073722;28;20264;-66
2022/05/27 06:46:00;;;;;;;5.53;3.30;;;;;;;;;;5073351;28;20235;-66
2022/05/27 06:48:26;;;;;;;4.13;3.40;;;;;;;;;;5073511;28;20202;-66
2022/05/27 06:50:52;;;;;;;4.47;2.77;;;;;;;;;;5055782;28;20185;-66
2022/05/27 06:53:18;;;;;;;5.20;3.17;;;;;;;;;;5073463;28;20182;-66
2022/05/27 06:55:52;;;;;;;3.60;3.30;;;;;;;;;;5073442;28;20201;-66
2022/05/27 06:58:18;;;;;;;5.30;3.20;;;;;;;;;;5055406;28;20566;-65
2022/05/27 07:00:44;;;;;;;4.97;3.27;;;;;;;;;;5073903;28;20178;-66
2022/05/27 07:03:10;;;;;;;6.10;3.13;;;;;;;;;;5073912;28;20177;-65
2022/05/27 07:05:36;;;;;;;6.07;3.50;;;;;;;;;;5055345;28;20221;-66
2022/05/27 07:08:03;;;;;;;8.07;3.70;;;;;;;;;;5073696;28;20251;-65
2022/05/27 07:10:29;;;;;;;6.93;3.90;;;;;;;;;;5055396;28;20275;-65
2022/05/27 07:12:56;;;;;;;5.63;3.47;;;;;;;;;;5073432;28;20174;-65
2022/05/27 07:15:22;;;;;;;4.40;3.03;;;;;;;;;;5073269;28;20728;-66
2022/05/27 07:17:48;;;;;;;4.13;3.57;;;;;;;;;;5073459;28;20212;-66
2022/05/27 07:20:14;;;;;;;4.50;3.43;;;;;;;;;;5073425;28;20181;-65
2022/05/27 07:22:40;;;;;;;4.73;3.57;;;;;;;;;;5073536;28;20626;-65
2022/05/27 07:25:06;;;;;;;7.27;3.90;;;;;;;;;;5055465;28;20315;-66
2022/05/27 07:27:32;;;;;;;5.57;3.97;;;;;;;;;;5073004;28;20284;-66
2022/05/27 07:29:58;;;;;;;4.83;4.13;;;;;;;;;;5073395;28;20209;-66
2022/05/27 07:32:23;;;;;;;7.07;4.27;;;;;;;;;;5073592;28;20174;-65
2022/05/27 07:34:49;;;;;;;5.27;4.33;;;;;;;;;;5073885;28;20196;-66
2022/05/27 07:37:15;;;;;;;8.60;3.87;;;;;;;;;;5073601;28;20201;-65
2022/05/27 07:39:41;;;;;;;4.67;3.50;;;;;;;;;;5055519;28;20550;-66
2022/05/27 07:42:07;;;;;;;5.23;4.10;;;;;;;;;;5074651;28;20609;-66
2022/05/27 07:44:33;;;;;;;5.33;4.13;;;;;;;;;;5076923;28;20197;-66
2022/05/27 07:46:59;;;;;;;4.30;3.90;;;;;;;;;;5059073;28;20209;-66
2022/05/27 07:49:25;;;;;;;7.43;4.40;;;;;;;;;;5077132;28;20178;-67
2022/05/27 07:51:51;;;;;;;7.87;4.30;;;;;;;;;;5077329;28;20184;-66
2022/05/27 07:54:18;;;;;;;6.63;3.93;;;;;;;;;;5076787;28;20236;-66
2022/05/27 07:56:44;;;;;;;6.83;4.07;;;;;;;;;;5077887;28;20181;-67
2022/05/27 07:59:10;;;;;;;5.27;3.67;;;;;;;;;;5076535;28;20178;-66
2022/05/27 08:01:36;;;;;;;5.33;3.93;;;;;;;;;;5059356;28;20193;-67
2022/05/27 08:04:03;;;;;;;6.33;3.80;;;;;;;;;;5076430;28;20217;-67
2022/05/27 08:06:29;;;;;;;6.40;2.80;;;;;;;;;;5058799;28;20188;-67
2022/05/27 08:08:55;;;;;;;3.40;2.30;;;;;;;;;;5058537;28;20296;-67
2022/05/27 08:11:21;;;;;;;3.53;2.53;;;;;;;;;;5076468;28;20178;-65
2022/05/27 08:13:47;;;;;;;6.67;2.83;;;;;;;;;;5079427;28;20249;-65
2022/05/27 08:16:13;;;;;;;4.10;2.70;;;;;;;;;;5096279;22;20241;-65
2022/05/27 08:18:39;;;;;;;4.77;2.87;;;;;;;;;;5076777;28;20711;-66
2022/05/27 08:21:05;;;;;;;6.17;2.57;;;;;;;;;;5076342;28;20563;-67
2022/05/27 08:23:31;;;;;;;3.60;2.43;;;;;;;;;;5058143;28;20185;-67
2022/05/27 08:25:58;;;;;;;4.70;2.70;;;;;;;;;;5058338;28;20289;-67
2022/05/27 08:28:27;;;;;;;5.30;2.57;;;;;;;;;;5075961;28;20673;-67
2022/05/27 08:30:55;;;;;;;5.47;2.93;;;;;;;;;;5058253;28;20623;-67
2022/05/27 08:33:21;;;;;;;4.43;2.60;;;;;;;;;;5076089;28;20185;-67
2022/05/27 08:38:33;;;;;;;4.60;2.60;;;;;;;;;;5076199;28;20303;-67
2022/05/27 08:41:02;;;;;;;5.23;2.50;;;;;;;;;;5057867;28;20173;-68
2022/05/27 08:43:30;;;;;;;5.20;2.50;;;;;;;;;;5057766;28;20276;-67
2022/05/27 08:46:02;;;;;;;8.47;2.60;;;;;;;;;;5075832;28;20278;-66
2022/05/27 08:48:32;;;;;;;3.63;2.30;;;;;;;;;;5057876;28;20220;-67
2022/05/27 08:51:06;;;;;;;4.77;2.13;;;;;;;;;;5076161;28;20184;-67
2022/05/27 08:53:37;;;;;;;3.83;2.00;;;;;;;;;;5056640;28;20291;-67
2022/05/27 09:01:39;;;;;;;7.67;2.60;;;;;;;;;;5076086;28;20176;-67
2022/05/27 09:04:18;;;;;;;4.93;2.20;;;;;;;;;;5057293;28;20636;-67
2022/05/27 09:06:47;;;;;;;6.07;1.90;;;;;;;;;;5057436;28;20201;-66
2022/05/27 09:09:18;;;;;;;3.87;2.70;;;;;;;;;;5057582;28;20229;-67
2022/05/27 09:11:58;;;;;;;8.57;2.50;;;;;;;;;;5075886;28;20167;-67
2022/05/27 09:14:25;;;;;;;4.20;1.90;;;;;;;;;;5075961;28;20177;-66
2022/05/27 09:16:57;;;;;;;6.90;2.37;;;;;;;;;;5057362;28;20247;-67
2022/05/27 09:19:32;;;;;;;4.43;2.37;;;;;;;;;;5056966;28;20654;-67
2022/05/27 09:22:04;;;;;;;4.27;2.10;;;;;;;;;;5057364;28;20268;-67
2022/05/27 09:24:39;;;;;;;3.40;2.23;;;;;;;;;;5075683;28;20165;-67
2022/05/27 09:27:17;;;;;;;3.70;2.20;;;;;;;;;;5057335;28;20288;-67
2022/05/27 09:29:55;;;;;;;8.17;2.30;;;;;;;;;;5075057;28;20220;-66
2022/05/27 09:32:27;;;;;;;3.40;1.83;;;;;;;;;;5074829;28;20215;-66
2022/05/27 09:34:54;;;;;;;4.40;2.20;;;;;;;;;;5056941;28;20182;-66
2022/05/27 09:37:34;;;;;;;6.60;2.43;;;;;;;;;;5056758;28;20703;-65
2022/05/27 09:40:03;;;;;;;9.33;2.40;;;;;;;;;;5074644;28;20191;-66
2022/05/27 09:42:36;;;;;;;5.00;2.40;;;;;;;;;;5057097;28;20182;-66
2022/05/27 09:45:02;;;;;;;6.37;2.43;;;;;;;;;;5074753;28;20177;-65
2022/05/27 09:47:32;;;;;;;5.30;2.57;;;;;;;;;;5074419;28;20211;-66
2022/05/27 09:50:04;;;;;;;3.87;2.23;;;;;;;;;;5074737;28;20168;-65
2022/05/27 09:52:31;;;;;;;3.00;2.07;;;;;;;;;;5074509;28;20633;-65
2022/05/27 09:55:01;;;;;;;9.97;2.93;;;;;;;;;;5056722;28;20618;-65
2022/05/27 09:57:29;;;;;;;3.70;2.30;;;;;;;;;;5056390;28;20338;-66
2022/05/27 09:59:57;;;;;;;3.53;2.00;;;;;;;;;;5056461;28;20182;-65
2022/05/27 10:02:32;;;;;;;4.40;2.13;;;;;;;;;;5056400;28;20680;-65
2022/05/27 10:04:58;;;;;;;4.43;2.03;;;;;;;;;;5074151;28;20170;-66
2022/05/27 10:07:30;;;;;;;4.53;2.10;;;;;;;;;;5056429;28;20214;-65
2022/05/27 10:09:56;;;;;;;7.13;2.43;;;;;;;;;;5056444;28;20178;-65
2022/05/27 10:12:33;;;;;;;4.03;2.37;;;;;;;;;;5074357;28;20256;-66
2022/05/27 10:14:59;;;;;;;2.90;1.90;;;;;;;;;;5074676;28;20166;-65
2022/05/27 10:17:32;;;;;;;6.30;2.77;;;;;;;;;;5056144;28;20217;-65
2022/05/27 10:20:14;;;;;;;3.87;2.40;;;;;;;;;;5056364;28;20189;-64
2022/05/27 10:22:40;;;;;;;7.00;2.43;;;;;;;;;;5074311;28;20248;-65
2022/05/27 10:25:08;;;;;;;5.27;2.40;;;;;;;;;;5073866;28;20209;-64
2022/05/27 10:27:36;;;;;;;4.50;2.50;;;;;;;;;;5074251;28;20566;-64
2022/05/27 10:30:18;;;;;;;6.93;2.30;;;;;;;;;;5073527;28;20178;-66
2022/05/27 10:32:45;;;;;;;3.13;2.37;;;;;;;;;;5073103;28;20160;-65
2022/05/27 10:35:17;;;;;;;4.80;2.10;;;;;;;;;;5072867;28;20257;-64
2022/05/27 10:37:46;;;;;;;6.60;3.00;;;;;;;;;;5072987;28;20182;-64
2022/05/27 10:40:28;;;;;;;3.33;2.07;;;;;;;;;;5073205;28;20180;-64
2022/05/27 10:43:05;;;;;;;4.17;2.37;;;;;;;;;;5072966;28;20257;-64
2022/05/27 10:45:38;;;;;;;4.40;2.17;;;;;;;;;;5054749;28;20200;-65
2022/05/27 10:48:13;;;;;;;6.43;2.57;;;;;;;;;;5072961;28;20697;-65
2022/05/27 10:50:51;;;;;;;5.40;2.23;;;;;;;;;;5073620;28;20162;-65
2022/05/27 10:53:35;;;;;;;3.80;1.80;;;;;;;;;;5054754;28;20177;-65
2022/05/27 10:56:19;;;;;;;5.57;2.10;;;;;;;;;;5073059;28;20198;-66
2022/05/27 11:02:07;;;;;;;5.20;2.10;;;;;;;;;;5073407;28;20264;-66
2022/05/27 11:04:48;;;;;;;4.73;2.37;;;;;;;;;;5073200;28;20177;-65
2022/05/27 11:07:14;;;;;;;5.40;2.77;;;;;;;;;;5072828;28;20197;-65
2022/05/27 11:09:50;;;;;;;6.83;2.53;;;;;;;;;;5072870;28;20680;-65
2022/05/27 11:15:30;;;;;;;5.83;3.10;;;;;;;;;;5073071;28;20239;-65
2022/05/27 11:18:04;;;;;;;6.37;3.37;;;;;;;;;;5075878;28;20231;-65
2022/05/27 11:20:40;;;;;;;6.50;2.60;;;;;;;;;;5076904;28;20237;-65
2022/05/27 11:23:09;;;;;;;4.27;2.37;;;;;;;;;;5076787;28;20170;-65
2022/05/27 11:25:47;;;;;;;3.73;2.00;;;;;;;;;;5076735;28;20197;-65
2022/05/27 11:28:22;;;;;;;9.00;2.73;;;;;;;;;;5058590;28;20217;-66
2022/05/27 11:30:54;;;;;;;4.87;2.27;;;;;;;;;;5058571;28;20268;-65
2022/05/27 11:33:39;;;;;;;3.27;2.63;;;;;;;;;;5058596;28;20170;-65
2022/05/27 11:36:31;;;;;;;3.80;2.10;;;;;;;;;;5076499;28;20189;-66
2022/05/27 11:39:06;;;;;;;6.40;2.53;;;;;;;;;;5055807;28;20186;-65
2022/05/27 11:41:41;;;;;;;3.67;2.10;;;;;;;;;;5058403;28;20217;-65
2022/05/27 11:44:22;;;;;;;6.40;2.63;;;;;;;;;;5076670;28;20571;-66
2022/05/27 11:47:06;;;;;;;4.83;2.20;;;;;;;;;;5076186;28;20571;-65
2022/05/27 11:49:57;;;;;;;4.83;2.27;;;;;;;;;;5076299;28;20166;-65
2022/05/27 11:52:26;;;;;;;8.53;2.33;;;;;;;;;;5058287;28;20172;-65
2022/05/27 11:54:58;;;;;;;3.53;2.10;;;;;;;;;;5076334;28;20181;-65
2022/05/27 11:57:41;;;;;;;4.40;2.17;;;;;;;;;;5076114;28;20216;-64
2022/05/27 12:00:10;;;;;;;8.13;2.40;;;;;;;;;;5058166;28;20174;-65
2022/05/27 12:02:58;;;;;;;3.10;1.93;;;;;;;;;;5076035;28;20174;-64
2022/05/27 12:05:37;;;;;;;4.50;2.50;;;;;;;;;;5057930;28;20698;-64
2022/05/27 12:08:11;;;;;;;7.13;2.33;;;;;;;;;;5057885;28;20205;-64
2022/05/27 12:10:44;;;;;;;4.30;3.80;;;;;;;;;;5076041;28;20165;-65
2022/05/27 12:13:19;;;;;;;7.23;3.23;;;;;;;;;;5075767;28;20209;-64
2022/05/27 12:15:52;;;;;;;11.77;3.60;;;;;;;;;;5057768;28;20263;-65
2022/05/27 12:18:24;;;;;;;3.77;2.27;;;;;;;;;;5076071;28;20181;-64
2022/05/27 12:20:51;;;;;;;3.90;2.33;;;;;;;;;;5075648;28;20186;-64
2022/05/27 12:23:19;;;;;;;3.50;1.90;;;;;;;;;;5057506;28;20209;-66
2022/05/27 12:25:48;;;;;;;4.03;2.23;;;;;;;;;;5075515;28;20190;-64
2022/05/27 12:28:16;;;;;;;4.43;2.83;;;;;;;;;;5075236;28;20216;-64
2022/05/27 12:30:43;;;;;;;5.60;2.50;;;;;;;;;;5075986;28;20266;-65
2022/05/27 12:33:14;;;;;;;5.07;2.30;;;;;;;;;;5075313;28;20166;-65
2022/05/27 12:35:42;;;;;;;5.80;2.50;;;;;;;;;;5075649;28;20201;-64
2022/05/27 12:38:16;;;;;;;4.13;3.20;;;;;;;;;;5057327;28;20238;-65
2022/05/27 12:40:46;;;;;;;4.63;2.40;;;;;;;;;;5075197;28;20252;-65
2022/05/27 12:43:21;;;;;;;8.23;1.90;;;;;;;;;;5075250;28;20208;-65
2022/05/27 12:45:49;;;;;;;4.53;2.23;;;;;;;;;;5057184;28;20201;-65
2022/05/27 12:48:27;;;;;;;5.27;2.17;;;;;;;;;;5075309;28;20764;-64
2022/05/27 12:50:57;;;;;;;3.53;2.40;;;;;;;;;;5075329;28;20217;-65
2022/05/27 12:53:42;;;;;;;3.73;2.10;;;;;;;;;;5075009;28;20186;-65
2022/05/27 13:02:14;;;;;;;6.53;3.03;;;;;;;;;;5075151;28;20170;-65
2022/05/27 13:04:46;;;;;;;5.70;2.37;;;;;;;;;;5074909;28;20196;-65
2022/05/27 13:07:12;;;;;;;4.57;2.07;;;;;;;;;;5074543;28;20197;-65
2022/05/27 13:09:42;;;;;;;9.67;2.87;;;;;;;;;;5074814;28;20181;-65
2022/05/27 13:12:10;;;;;;;3.90;2.00;;;;;;;;;;5074606;28;20178;-64
2022/05/27 13:14:42;;;;;;;12.57;3.43;;;;;;;;;;5074924;28;20193;-65
2022/05/27 13:17:10;;;;;;;5.50;2.90;;;;;;;;;;5074355;28;20210;-65
2022/05/27 13:20:05;;;;;;;4.77;2.20;;;;;;;;;;5075302;28;20188;-65
2022/05/27 13:22:33;;;;;;;3.73;2.10;;;;;;;;;;4987281;28;20232;-65
2022/05/27 13:25:24;;;;;;;3.90;2.20;;;;;;;;;;5057267;28;20170;-65
2022/05/27 13:27:54;;;;;;;6.80;2.33;;;;;;;;;;5074566;28;20189;-65
2022/05/27 13:30:23;;;;;;;3.97;2.30;;;;;;;;;;5074475;28;20678;-65
2022/05/27 13:33:04;;;;;;;5.47;2.27;;;;;;;;;;5074207;28;20696;-65
2022/05/27 13:35:39;;;;;;;2.47;2.10;;;;;;;;;;5055938;28;20197;-65
2022/05/27 13:38:09;;;;;;;4.10;2.07;;;;;;;;;;5074373;28;20178;-65
2022/05/27 13:40:36;;;;;;;6.20;2.40;;;;;;;;;;5073885;28;20584;-66
2022/05/27 13:43:06;;;;;;;4.40;2.00;;;;;;;;;;5074084;28;20184;-65
2022/05/27 13:45:56;;;;;;;4.10;1.70;;;;;;;;;;5056327;28;20228;-65
2022/05/27 13:48:25;;;;;;;5.10;2.00;;;;;;;;;;5060941;28;20681;-66
2022/05/27 13:51:03;;;;;;;4.57;2.07;;;;;;;;;;5055922;28;20178;-66
2022/05/27 13:53:29;;;;;;;3.10;1.90;;;;;;;;;;5074560;28;20161;-65
2022/05/27 13:56:16;;;;;;;6.70;2.20;;;;;;;;;;5073646;28;20205;-65
2022/05/27 13:58:48;;;;;;;4.70;2.10;;;;;;;;;;5059860;28;20622;-65
2022/05/27 14:01:14;;;;;;;3.73;2.00;;;;;;;;;;5073668;28;20265;-65
2022/05/27 14:03:42;;;;;;;3.57;1.93;;;;;;;;;;5073732;28;20579;-65
2022/05/27 14:06:09;;;;;;;4.13;2.13;;;;;;;;;;5055617;28;20201;-68
2022/05/27 14:08:36;;;;;;;4.33;2.07;;;;;;;;;;5073456;28;20214;-65
2022/05/27 14:11:07;;;;;;;3.47;1.93;;;;;;;;;;5055568;28;20282;-65
2022/05/27 14:13:34;;;;;;;5.90;2.00;;;;;;;;;;5055592;28;20181;-65
2022/05/27 14:18:36;;;;;;;4.13;2.10;;;;;;;;;;5053091;28;20236;-66
2022/05/27 14:23:48;;;;;;;4.50;1.90;;;;;;;;;;5054098;28;20224;-67
2022/05/27 14:26:14;;;;;;;4.83;2.17;;;;;;;;;;5035606;28;20655;-67
2022/05/27 14:28:48;;;;;;;7.67;2.30;;;;;;;;;;5035418;28;20202;-67
2022/05/27 14:31:20;;;;;;;5.97;2.10;;;;;;;;;;5053906;28;20174;-68
2022/05/27 14:33:49;;;;;;;5.20;2.30;;;;;;;;;;5054226;28;20178;-67
2022/05/27 14:36:15;;;;;;;6.23;2.20;;;;;;;;;;5053608;28;20174;-67
2022/05/27 14:38:42;;;;;;;4.87;2.37;;;;;;;;;;5053549;28;20181;-67
2022/05/27 14:41:14;;;;;;;3.07;1.90;;;;;;;;;;5053629;28;20186;-67
2022/05/27 14:43:40;;;;;;;5.10;2.20;;;;;;;;;;5053446;28;20628;-67
2022/05/27 14:46:13;;;;;;;6.50;2.20;;;;;;;;;;5053230;28;20221;-69
2022/05/27 14:48:40;;;;;;;5.53;2.00;;;;;;;;;;5053478;28;20202;-67
2022/05/27 14:51:15;;;;;;;5.40;2.40;;;;;;;;;;5053484;28;20257;-67
2022/05/27 14:53:41;;;;;;;5.27;2.20;;;;;;;;;;5040042;28;20178;-68
2022/05/27 14:56:09;;;;;;;3.60;2.20;;;;;;;;;;5057800;28;20174;-67
2022/05/27 14:58:36;;;;;;;4.83;2.40;;;;;;;;;;5039834;28;20189;-67
2022/05/27 15:01:02;;;;;;;7.33;2.23;;;;;;;;;;5057816;28;20638;-67
2022/05/27 15:03:35;;;;;;;6.20;2.47;;;;;;;;;;5039621;28;20186;-68
2022/05/27 15:06:18;;;;;;;5.90;2.30;;;;;;;;;;5057541;28;20245;-67
2022/05/27 15:08:45;;;;;;;5.27;1.87;;;;;;;;;;5057752;28;20182;-67
2022/05/27 15:11:17;;;;;;;4.20;2.00;;;;;;;;;;5039390;28;20612;-68
2022/05/27 15:13:53;;;;;;;6.60;1.90;;;;;;;;;;5056980;28;20594;-67
2022/05/27 15:16:22;;;;;;;6.67;2.13;;;;;;;;;;5057059;28;20572;-69
2022/05/27 15:18:48;;;;;;;5.90;1.90;;;;;;;;;;5057113;28;20174;-67
2022/05/27 15:21:18;;;;;;;5.73;2.43;;;;;;;;;;5057022;28;20229;-66
2022/05/27 15:24:14;;;;;;;4.90;1.83;;;;;;;;;;5057353;28;20169;-66
2022/05/27 15:35:26;;;;;;;3.10;1.70;;;;;;;;;;5057173;28;20297;-66
2022/05/27 15:37:52;;;;;;;4.83;1.80;;;;;;;;;;5056759;28;20218;-66
2022/05/27 15:40:18;;;;;;;5.33;1.93;;;;;;;;;;5056538;28;20549;-68
2022/05/27 15:42:45;;;;;;;4.07;1.80;;;;;;;;;;5056679;28;20178;-66
2022/05/27 15:45:11;;;;;;;4.00;1.70;;;;;;;;;;5038501;28;20189;-66